createdAt,value
2018-11-01T00:00:43.894Z,9.81
2018-11-01T00:01:44.048Z,9.75
2018-11-01T00:02:44.212Z,9.75
2018-11-01T00:03:43.865Z,9.75
2018-11-01T00:04:43.884Z,9.75
2018-11-01T00:05:43.884Z,9.75
2018-11-01T00:06:43.952Z,9.69
2018-11-01T00:07:43.999Z,9.75
2018-11-01T00:08:43.901Z,9.69
2018-11-01T00:09:43.912Z,9.69
2018-11-01T00:10:43.870Z,9.69
2018-11-01T00:11:44.309Z,9.69
2018-11-01T00:12:43.905Z,9.63
2018-11-01T00:13:43.886Z,9.69
2018-11-01T00:14:44.095Z,9.69
2018-11-01T00:15:43.875Z,9.69
2018-11-01T00:16:43.885Z,9.69
2018-11-01T00:17:43.860Z,9.69
2018-11-01T00:18:43.891Z,9.69
2018-11-01T00:19:43.869Z,9.69
2018-11-01T00:20:43.857Z,9.69
2018-11-01T00:21:43.947Z,9.69
2018-11-01T00:22:43.850Z,9.63
2018-11-01T00:23:43.859Z,9.69
2018-11-01T00:24:43.877Z,9.69
2018-11-01T00:25:43.837Z,9.69
2018-11-01T00:26:43.881Z,9.69
2018-11-01T00:27:43.885Z,9.69
2018-11-01T00:28:43.833Z,9.69
2018-11-01T00:29:43.823Z,9.69
2018-11-01T00:30:43.855Z,9.69
2018-11-01T00:31:44.243Z,9.69
2018-11-01T00:32:43.912Z,9.69
2018-11-01T00:33:43.833Z,9.63
2018-11-01T00:34:43.841Z,9.69
2018-11-01T00:35:43.844Z,9.63
2018-11-01T00:36:43.892Z,9.63
2018-11-01T00:37:43.842Z,9.63
2018-11-01T00:38:43.886Z,9.63
2018-11-01T00:39:43.877Z,9.63
2018-11-01T00:40:43.823Z,9.63
2018-11-01T00:41:43.827Z,9.56
2018-11-01T00:42:43.924Z,9.63
2018-11-01T00:43:44.078Z,9.63
2018-11-01T00:44:43.835Z,9.56
2018-11-01T00:45:43.800Z,9.56
2018-11-01T00:46:43.841Z,9.56
2018-11-01T00:47:43.939Z,9.56
2018-11-01T00:48:43.821Z,9.56
2018-11-01T00:49:43.913Z,9.63
2018-11-01T00:50:44.003Z,9.63
2018-11-01T00:51:43.811Z,9.56
2018-11-01T00:52:43.905Z,9.63
2018-11-01T00:53:43.839Z,9.56
2018-11-01T00:54:43.845Z,9.56
2018-11-01T00:55:43.804Z,9.56
2018-11-01T00:56:43.964Z,9.56
2018-11-01T00:57:43.881Z,9.56
2018-11-01T00:58:43.772Z,9.56
2018-11-01T00:59:44.240Z,9.56
2018-11-01T01:00:44.081Z,9.56
2018-11-01T01:01:43.803Z,9.56
2018-11-01T01:02:43.914Z,9.56
2018-11-01T01:03:43.773Z,9.56
2018-11-01T01:04:43.809Z,9.5
2018-11-01T01:05:43.819Z,9.56
2018-11-01T01:06:43.812Z,9.5
2018-11-01T01:07:43.867Z,9.5
2018-11-01T01:08:43.832Z,9.56
2018-11-01T01:09:43.761Z,9.56
2018-11-01T01:10:43.775Z,9.56
2018-11-01T01:11:43.878Z,9.56
2018-11-01T01:12:43.795Z,9.5
2018-11-01T01:13:44.195Z,9.56
2018-11-01T01:14:43.831Z,9.5
2018-11-01T01:15:43.839Z,9.56
2018-11-01T01:16:43.783Z,9.5
2018-11-01T01:17:43.811Z,9.5
2018-11-01T01:18:44.088Z,9.5
2018-11-01T01:19:43.756Z,9.56
2018-11-01T01:20:43.800Z,9.5
2018-11-01T01:21:43.902Z,9.5
2018-11-01T01:22:43.791Z,9.5
2018-11-01T01:23:43.813Z,9.5
2018-11-01T01:24:43.789Z,9.5
2018-11-01T01:25:43.836Z,9.5
2018-11-01T01:26:43.767Z,9.44
2018-11-01T01:27:43.766Z,9.44
2018-11-01T01:28:43.784Z,9.44
2018-11-01T01:29:44.218Z,9.5
2018-11-01T01:30:43.792Z,9.5
2018-11-01T01:31:43.779Z,9.5
2018-11-01T01:32:43.836Z,9.5
2018-11-01T01:33:43.733Z,9.44
2018-11-01T01:34:44.940Z,9.44
2018-11-01T01:35:43.780Z,9.44
2018-11-01T01:36:43.838Z,9.38
2018-11-01T01:37:43.751Z,9.38
2018-11-01T01:38:44.265Z,9.38
2018-11-01T01:39:43.756Z,9.31
2018-11-01T01:40:43.742Z,9.38
2018-11-01T01:41:43.749Z,9.38
2018-11-01T01:42:43.821Z,9.31
2018-11-01T01:43:43.755Z,9.31
2018-11-01T01:44:43.734Z,9.31
2018-11-01T01:45:43.842Z,9.31
2018-11-01T01:46:43.780Z,9.31
2018-11-01T01:47:43.776Z,9.31
2018-11-01T01:48:43.774Z,9.31
2018-11-01T01:49:43.714Z,9.31
2018-11-01T01:50:44.678Z,9.25
2018-11-01T01:51:44.143Z,9.25
2018-11-01T01:52:43.718Z,9.25
2018-11-01T01:53:43.727Z,9.25
2018-11-01T01:54:43.771Z,9.25
2018-11-01T01:55:43.742Z,9.25
2018-11-01T01:56:43.747Z,9.25
2018-11-01T01:57:43.812Z,9.25
2018-11-01T01:58:43.816Z,9.25
2018-11-01T01:59:43.757Z,9.25
2018-11-01T02:00:44.327Z,9.25
2018-11-01T02:01:44.102Z,9.25
2018-11-01T02:02:43.718Z,9.25
2018-11-01T02:03:43.723Z,9.25
2018-11-01T02:04:43.712Z,9.25
2018-11-01T02:05:43.705Z,9.31
2018-11-01T02:06:43.695Z,9.25
2018-11-01T02:07:43.793Z,9.25
2018-11-01T02:08:43.746Z,9.25
2018-11-01T02:09:43.687Z,9.25
2018-11-01T02:10:43.701Z,9.25
2018-11-01T02:11:44.712Z,9.25
2018-11-01T02:12:43.737Z,9.25
2018-11-01T02:13:43.686Z,9.25
2018-11-01T02:14:43.790Z,9.31
2018-11-01T02:15:43.777Z,9.25
2018-11-01T02:16:43.824Z,9.19
2018-11-01T02:17:43.719Z,9.25
2018-11-01T02:18:43.661Z,9.25
2018-11-01T02:19:43.933Z,9.19
2018-11-01T02:20:43.689Z,9.25
2018-11-01T02:21:43.690Z,9.19
2018-11-01T02:22:43.781Z,9.19
2018-11-01T02:23:43.700Z,9.19
2018-11-01T02:24:43.817Z,9.19
2018-11-01T02:25:43.681Z,9.19
2018-11-01T02:26:43.668Z,9.19
2018-11-01T02:27:43.985Z,9.19
2018-11-01T02:28:43.718Z,9.19
2018-11-01T02:29:43.688Z,9.13
2018-11-01T02:30:43.699Z,9.13
2018-11-01T02:31:43.813Z,9.13
2018-11-01T02:32:43.712Z,9.13
2018-11-01T02:33:43.726Z,9.06
2018-11-01T02:34:43.675Z,9.06
2018-11-01T02:35:43.674Z,9.06
2018-11-01T02:36:43.635Z,9.06
2018-11-01T02:37:44.215Z,9.06
2018-11-01T02:38:44.621Z,9
2018-11-01T02:39:43.675Z,9
2018-11-01T02:40:43.707Z,9
2018-11-01T02:41:43.631Z,8.94
2018-11-01T02:42:43.650Z,8.94
2018-11-01T02:43:43.858Z,8.94
2018-11-01T02:44:43.773Z,8.94
2018-11-01T02:45:43.639Z,8.94
2018-11-01T02:46:43.852Z,8.94
2018-11-01T02:47:44.214Z,8.94
2018-11-01T02:48:43.766Z,8.88
2018-11-01T02:49:43.630Z,8.81
2018-11-01T02:50:43.648Z,8.63
2018-11-01T02:51:43.643Z,8.56
2018-11-01T02:52:44.071Z,8.5
2018-11-01T02:53:43.744Z,8.44
2018-11-01T02:54:43.622Z,8.44
2018-11-01T02:55:43.595Z,8.38
2018-11-01T02:56:43.647Z,8.38
2018-11-01T02:57:43.720Z,8.25
2018-11-01T02:58:44.124Z,8.25
2018-11-01T02:59:44.722Z,8.19
2018-11-01T03:00:43.601Z,8.19
2018-11-01T03:01:43.699Z,8.13
2018-11-01T03:02:43.687Z,8.06
2018-11-01T03:03:43.637Z,8
2018-11-01T03:04:43.623Z,7.94
2018-11-01T03:05:43.700Z,7.94
2018-11-01T03:06:43.637Z,7.81
2018-11-01T03:07:43.703Z,7.62
2018-11-01T03:08:43.613Z,7.62
2018-11-01T03:09:43.810Z,7.62
2018-11-01T03:10:43.625Z,7.56
2018-11-01T03:11:43.630Z,7.56
2018-11-01T03:12:43.663Z,7.56
2018-11-01T03:13:43.607Z,7.56
2018-11-01T03:14:43.629Z,7.5
2018-11-01T03:15:43.645Z,7.5
2018-11-01T03:16:43.665Z,7.5
2018-11-01T03:17:43.673Z,7.5
2018-11-01T03:18:43.622Z,7.5
2018-11-01T03:19:43.769Z,7.5
2018-11-01T03:20:43.637Z,7.5
2018-11-01T03:21:43.634Z,7.5
2018-11-01T03:22:43.953Z,7.5
2018-11-01T03:23:43.581Z,7.44
2018-11-01T03:24:43.756Z,7.44
2018-11-01T03:25:43.611Z,7.44
2018-11-01T03:26:44.578Z,7.44
2018-11-01T03:27:43.657Z,7.44
2018-11-01T03:28:43.901Z,7.44
2018-11-01T03:29:43.632Z,7.44
2018-11-01T03:30:43.606Z,7.44
2018-11-01T03:31:43.623Z,7.5
2018-11-01T03:32:43.616Z,7.5
2018-11-01T03:33:43.625Z,7.5
2018-11-01T03:34:43.566Z,7.5
2018-11-01T03:35:44.148Z,7.5
2018-11-01T03:36:43.751Z,7.5
2018-11-01T03:37:43.660Z,7.44
2018-11-01T03:38:44.002Z,7.44
2018-11-01T03:39:43.598Z,7.44
2018-11-01T03:40:43.594Z,7.37
2018-11-01T03:41:43.627Z,7.37
2018-11-01T03:42:43.738Z,7.25
2018-11-01T03:43:43.561Z,7.12
2018-11-01T03:44:43.556Z,7.12
2018-11-01T03:45:44.671Z,7.12
2018-11-01T03:46:43.588Z,7.12
2018-11-01T03:47:43.613Z,7.12
2018-11-01T03:48:43.575Z,7.19
2018-11-01T03:49:43.694Z,7.19
2018-11-01T03:50:43.923Z,7.19
2018-11-01T03:51:44.114Z,7.19
2018-11-01T03:52:43.621Z,7.19
2018-11-01T03:53:44.683Z,7.19
2018-11-01T03:54:43.574Z,7.25
2018-11-01T03:55:43.556Z,7.25
2018-11-01T03:56:43.651Z,7.25
2018-11-01T03:57:43.591Z,7.31
2018-11-01T03:58:43.703Z,7.31
2018-11-01T03:59:43.553Z,7.37
2018-11-01T04:00:43.577Z,7.31
2018-11-01T04:01:43.585Z,7.31
2018-11-01T04:02:43.605Z,7.31
2018-11-01T04:03:44.224Z,7.37
2018-11-01T04:04:43.544Z,7.31
2018-11-01T04:05:43.537Z,7.31
2018-11-01T04:06:43.522Z,7.25
2018-11-01T04:07:43.551Z,7.31
2018-11-01T04:08:43.569Z,7.25
2018-11-01T04:09:43.517Z,7.25
2018-11-01T04:10:43.577Z,7.19
2018-11-01T04:11:43.618Z,7.19
2018-11-01T04:12:43.578Z,7.19
2018-11-01T04:13:44.527Z,7.19
2018-11-01T04:14:43.556Z,7.19
2018-11-01T04:15:43.617Z,7.19
2018-11-01T04:16:43.936Z,7.19
2018-11-01T04:17:43.540Z,7.12
2018-11-01T04:18:43.538Z,7.19
2018-11-01T04:19:43.583Z,7.19
2018-11-01T04:20:43.553Z,7.19
2018-11-01T04:21:43.507Z,7.19
2018-11-01T04:22:43.530Z,7.19
2018-11-01T04:23:43.564Z,7.19
2018-11-01T04:24:43.514Z,7.12
2018-11-01T04:25:44.027Z,7.12
2018-11-01T04:26:43.481Z,7.06
2018-11-01T04:27:43.979Z,7.06
2018-11-01T04:28:43.716Z,7.06
2018-11-01T04:29:43.504Z,7.06
2018-11-01T04:30:43.470Z,7.06
2018-11-01T04:31:43.524Z,7
2018-11-01T04:32:43.489Z,7
2018-11-01T04:33:45.679Z,7
2018-11-01T04:34:43.518Z,7
2018-11-01T04:35:43.496Z,7
2018-11-01T04:36:43.483Z,6.94
2018-11-01T04:37:43.548Z,7
2018-11-01T04:38:43.582Z,6.94
2018-11-01T04:39:43.561Z,6.94
2018-11-01T04:40:44.980Z,6.94
2018-11-01T04:41:43.606Z,6.94
2018-11-01T04:42:43.544Z,6.94
2018-11-01T04:43:43.485Z,6.94
2018-11-01T04:44:43.520Z,6.94
2018-11-01T04:45:43.487Z,7
2018-11-01T04:46:43.474Z,6.94
2018-11-01T04:47:45.338Z,6.94
2018-11-01T04:48:43.549Z,7
2018-11-01T04:49:43.852Z,7
2018-11-01T04:50:43.485Z,7
2018-11-01T04:51:43.475Z,7
2018-11-01T04:52:43.488Z,7
2018-11-01T04:53:43.445Z,7
2018-11-01T04:54:43.452Z,6.94
2018-11-01T04:55:43.493Z,7
2018-11-01T04:56:43.581Z,6.94
2018-11-01T04:57:43.484Z,7
2018-11-01T04:58:43.460Z,6.94
2018-11-01T04:59:43.529Z,7
2018-11-01T05:00:43.432Z,6.94
2018-11-01T05:01:43.493Z,6.94
2018-11-01T05:02:43.560Z,6.94
2018-11-01T05:03:43.907Z,6.94
2018-11-01T05:04:43.541Z,6.94
2018-11-01T05:05:43.441Z,6.87
2018-11-01T05:06:44.066Z,6.87
2018-11-01T05:07:43.460Z,6.87
2018-11-01T05:08:43.507Z,6.81
2018-11-01T05:09:43.421Z,6.81
2018-11-01T05:10:43.420Z,6.87
2018-11-01T05:11:43.432Z,6.81
2018-11-01T05:12:43.920Z,6.87
2018-11-01T05:13:43.497Z,6.87
2018-11-01T05:14:43.369Z,6.81
2018-11-01T05:15:43.628Z,6.81
2018-11-01T05:16:43.511Z,6.75
2018-11-01T05:17:43.719Z,6.69
2018-11-01T05:18:43.407Z,6.69
2018-11-01T05:19:43.398Z,6.62
2018-11-01T05:20:43.474Z,6.62
2018-11-01T05:21:43.432Z,6.62
2018-11-01T05:22:43.546Z,6.56
2018-11-01T05:23:43.410Z,6.56
2018-11-01T05:24:43.933Z,6.56
2018-11-01T05:25:44.104Z,6.56
2018-11-01T05:26:43.814Z,6.5
2018-11-01T05:27:43.475Z,6.56
2018-11-01T05:28:43.407Z,6.5
2018-11-01T05:29:43.429Z,6.56
2018-11-01T05:30:43.401Z,6.56
2018-11-01T05:31:43.411Z,6.5
2018-11-01T05:32:43.396Z,6.5
2018-11-01T05:33:43.433Z,6.5
2018-11-01T05:34:43.474Z,6.5
2018-11-01T05:35:43.434Z,6.5
2018-11-01T05:36:43.402Z,6.5
2018-11-01T05:37:43.640Z,6.44
2018-11-01T05:38:43.595Z,6.44
2018-11-01T05:39:43.399Z,6.44
2018-11-01T05:40:43.626Z,6.44
2018-11-01T05:41:43.417Z,6.5
2018-11-01T05:42:43.450Z,6.5
2018-11-01T05:43:43.421Z,6.5
2018-11-01T05:44:43.438Z,6.56
2018-11-01T05:45:43.491Z,6.5
2018-11-01T05:46:43.760Z,6.56
2018-11-01T05:47:43.369Z,6.56
2018-11-01T05:48:43.430Z,6.56
2018-11-01T05:49:43.622Z,6.5
2018-11-01T05:50:43.383Z,6.5
2018-11-01T05:51:43.424Z,6.5
2018-11-01T05:52:43.406Z,6.5
2018-11-01T05:53:43.416Z,6.56
2018-11-01T05:54:43.372Z,6.5
2018-11-01T05:55:43.445Z,6.56
2018-11-01T05:56:43.414Z,6.5
2018-11-01T05:57:43.353Z,6.5
2018-11-01T05:58:43.436Z,6.5
2018-11-01T05:59:43.837Z,6.44
2018-11-01T06:00:43.362Z,6.37
2018-11-01T06:01:43.395Z,6.31
2018-11-01T06:02:43.374Z,6.25
2018-11-01T06:03:43.424Z,6.19
2018-11-01T06:04:43.379Z,6.12
2018-11-01T06:05:44.277Z,6.12
2018-11-01T06:06:43.388Z,6.12
2018-11-01T06:07:43.374Z,6.12
2018-11-01T06:08:43.385Z,6.12
2018-11-01T06:09:43.404Z,6.12
2018-11-01T06:10:43.348Z,6.12
2018-11-01T06:11:43.346Z,6.12
2018-11-01T06:12:43.746Z,6.12
2018-11-01T06:13:43.384Z,6.19
2018-11-01T06:14:43.377Z,6.19
2018-11-01T06:15:43.353Z,6.12
2018-11-01T06:16:43.466Z,6.12
2018-11-01T06:17:43.403Z,6.12
2018-11-01T06:18:43.889Z,6.12
2018-11-01T06:19:43.395Z,6.06
2018-11-01T06:20:44.568Z,6.19
2018-11-01T06:21:43.324Z,6.12
2018-11-01T06:22:43.330Z,6.19
2018-11-01T06:23:43.349Z,6.19
2018-11-01T06:24:43.319Z,6.19
2018-11-01T06:25:43.698Z,6.25
2018-11-01T06:26:43.432Z,6.25
2018-11-01T06:27:43.418Z,6.31
2018-11-01T06:28:43.289Z,6.31
2018-11-01T06:29:43.355Z,6.37
2018-11-01T06:30:43.421Z,6.31
2018-11-01T06:31:43.343Z,6.37
2018-11-01T06:32:43.327Z,6.37
2018-11-01T06:33:43.327Z,6.37
2018-11-01T06:34:43.338Z,6.37
2018-11-01T06:35:43.298Z,6.37
2018-11-01T06:36:43.276Z,6.31
2018-11-01T06:37:43.358Z,6.25
2018-11-01T06:38:43.320Z,6.25
2018-11-01T06:39:43.320Z,6.25
2018-11-01T06:40:43.365Z,6.25
2018-11-01T06:41:43.533Z,6.31
2018-11-01T06:42:43.345Z,6.31
2018-11-01T06:43:43.672Z,6.31
2018-11-01T06:44:43.680Z,6.31
2018-11-01T06:45:43.376Z,6.31
2018-11-01T06:46:43.273Z,6.37
2018-11-01T06:47:43.282Z,6.37
2018-11-01T06:48:43.422Z,6.31
2018-11-01T06:49:43.285Z,6.31
2018-11-01T06:50:43.293Z,6.31
2018-11-01T06:51:43.341Z,6.37
2018-11-01T06:52:43.604Z,6.37
2018-11-01T06:53:43.279Z,6.31
2018-11-01T06:54:43.303Z,6.37
2018-11-01T06:55:43.611Z,6.31
2018-11-01T06:56:43.269Z,6.31
2018-11-01T06:57:43.295Z,6.31
2018-11-01T06:58:43.831Z,6.37
2018-11-01T06:59:43.320Z,6.5
2018-11-01T07:00:43.336Z,6.56
2018-11-01T07:01:43.282Z,6.69
2018-11-01T07:02:43.325Z,6.75
2018-11-01T07:03:43.312Z,6.87
2018-11-01T07:04:43.268Z,6.94
2018-11-01T07:05:44.317Z,7.06
2018-11-01T07:06:43.284Z,7.12
2018-11-01T07:07:43.904Z,7.12
2018-11-01T07:08:43.338Z,7.19
2018-11-01T07:09:43.677Z,7.12
2018-11-01T07:10:43.284Z,7
2018-11-01T07:11:43.288Z,6.94
2018-11-01T07:12:43.264Z,6.94
2018-11-01T07:13:43.331Z,6.87
2018-11-01T07:14:43.239Z,6.87
2018-11-01T07:15:43.241Z,6.75
2018-11-01T07:16:43.243Z,6.81
2018-11-01T07:17:44.658Z,6.75
2018-11-01T07:18:43.358Z,6.75
2018-11-01T07:19:43.243Z,6.75
2018-11-01T07:20:43.280Z,6.69
2018-11-01T07:21:43.334Z,6.75
2018-11-01T07:22:43.291Z,6.75
2018-11-01T07:23:43.249Z,6.75
2018-11-01T07:24:43.222Z,6.75
2018-11-01T07:25:43.731Z,6.75
2018-11-01T07:26:43.280Z,6.75
2018-11-01T07:27:43.242Z,6.75
2018-11-01T07:28:43.267Z,6.75
2018-11-01T07:29:43.236Z,6.75
2018-11-01T07:30:43.244Z,6.69
2018-11-01T07:31:43.235Z,6.75
2018-11-01T07:32:44.737Z,6.69
2018-11-01T07:33:43.302Z,6.75
2018-11-01T07:34:43.221Z,6.75
2018-11-01T07:35:43.221Z,6.75
2018-11-01T07:36:43.234Z,6.75
2018-11-01T07:37:43.244Z,6.75
2018-11-01T07:38:43.248Z,6.75
2018-11-01T07:39:43.616Z,6.75
2018-11-01T07:40:43.233Z,6.75
2018-11-01T07:41:43.221Z,6.75
2018-11-01T07:42:43.255Z,6.81
2018-11-01T07:43:43.260Z,6.75
2018-11-01T07:44:43.206Z,6.75
2018-11-01T07:45:43.276Z,6.69
2018-11-01T07:46:43.230Z,6.69
2018-11-01T07:47:43.325Z,6.69
2018-11-01T07:48:45.145Z,6.69
2018-11-01T07:49:43.213Z,6.75
2018-11-01T07:50:43.225Z,6.69
2018-11-01T07:51:43.337Z,6.75
2018-11-01T07:52:44.396Z,6.69
2018-11-01T07:53:43.270Z,6.75
2018-11-01T07:54:43.187Z,6.69
2018-11-01T07:55:43.194Z,6.69
2018-11-01T07:56:43.216Z,6.69
2018-11-01T07:57:43.228Z,6.69
2018-11-01T07:58:43.209Z,6.69
2018-11-01T07:59:43.217Z,6.69
2018-11-01T08:00:43.206Z,6.69
2018-11-01T08:01:43.230Z,6.75
2018-11-01T08:02:43.225Z,6.75
2018-11-01T08:03:43.201Z,6.75
2018-11-01T08:04:43.222Z,6.75
2018-11-01T08:05:43.618Z,6.75
2018-11-01T08:06:43.203Z,6.81
2018-11-01T08:07:43.332Z,6.81
2018-11-01T08:08:43.252Z,6.75
2018-11-01T08:09:43.413Z,6.81
2018-11-01T08:10:43.229Z,6.87
2018-11-01T08:11:43.704Z,6.87
2018-11-01T08:12:43.183Z,6.87
2018-11-01T08:13:43.233Z,6.87
2018-11-01T08:14:43.295Z,6.94
2018-11-01T08:15:43.365Z,6.94
2018-11-01T08:16:43.908Z,6.94
2018-11-01T08:17:43.168Z,6.94
2018-11-01T08:18:43.309Z,6.94
2018-11-01T08:19:44.413Z,6.94
2018-11-01T08:20:45.108Z,6.94
2018-11-01T08:21:43.308Z,7
2018-11-01T08:22:43.523Z,6.94
2018-11-01T08:23:43.189Z,6.94
2018-11-01T08:24:43.490Z,6.94
2018-11-01T08:25:43.213Z,6.87
2018-11-01T08:26:43.183Z,6.87
2018-11-01T08:27:43.592Z,6.94
2018-11-01T08:28:43.416Z,6.87
2018-11-01T08:29:43.258Z,6.94
2018-11-01T08:30:43.560Z,6.94
2018-11-01T08:31:43.199Z,6.87
2018-11-01T08:32:43.462Z,6.87
2018-11-01T08:33:43.378Z,6.87
2018-11-01T08:34:43.279Z,6.87
2018-11-01T08:35:43.243Z,6.87
2018-11-01T08:36:43.267Z,6.94
2018-11-01T08:37:43.197Z,6.94
2018-11-01T08:38:43.192Z,7
2018-11-01T08:39:43.188Z,6.94
2018-11-01T08:40:43.969Z,7
2018-11-01T08:41:43.160Z,7
2018-11-01T08:42:43.546Z,7
2018-11-01T08:43:43.206Z,7
2018-11-01T08:44:43.718Z,7
2018-11-01T08:45:43.228Z,7
2018-11-01T08:46:43.278Z,7
2018-11-01T08:47:43.612Z,7.06
2018-11-01T08:48:43.218Z,7.06
2018-11-01T08:49:43.178Z,7.06
2018-11-01T08:50:43.300Z,7.06
2018-11-01T08:51:43.195Z,7.12
2018-11-01T08:52:43.204Z,7.06
2018-11-01T08:53:43.218Z,7.12
2018-11-01T08:54:43.208Z,7.06
2018-11-01T08:55:43.535Z,7.06
2018-11-01T08:56:43.133Z,7.12
2018-11-01T08:57:43.549Z,7.12
2018-11-01T08:58:43.233Z,7.12
2018-11-01T08:59:43.180Z,7.12
2018-11-01T09:00:43.469Z,7.12
2018-11-01T09:01:43.182Z,7.12
2018-11-01T09:02:43.168Z,7.12
2018-11-01T09:03:43.248Z,7.19
2018-11-01T09:04:43.262Z,7.19
2018-11-01T09:05:43.249Z,7.19
2018-11-01T09:06:43.208Z,7.19
2018-11-01T09:07:45.811Z,7.19
2018-11-01T09:08:43.104Z,7.12
2018-11-01T09:09:43.394Z,7.19
2018-11-01T09:10:43.117Z,7.19
2018-11-01T09:11:43.638Z,7.19
2018-11-01T09:12:44.040Z,7.25
2018-11-01T09:13:43.141Z,7.19
2018-11-01T09:14:43.376Z,7.25
2018-11-01T09:15:43.341Z,7.25
2018-11-01T09:16:43.277Z,7.25
2018-11-01T09:17:43.666Z,7.25
2018-11-01T09:18:43.227Z,7.25
2018-11-01T09:19:43.203Z,7.31
2018-11-01T09:20:43.441Z,7.31
2018-11-01T09:21:43.474Z,7.31
2018-11-01T09:22:43.248Z,7.31
2018-11-01T09:23:43.498Z,7.31
2018-11-01T09:24:43.299Z,7.37
2018-11-01T09:25:43.152Z,7.37
2018-11-01T09:26:43.620Z,7.37
2018-11-01T09:27:43.143Z,7.37
2018-11-01T09:28:43.076Z,7.37
2018-11-01T09:29:43.106Z,7.37
2018-11-01T09:30:43.172Z,7.44
2018-11-01T09:31:43.274Z,7.44
2018-11-01T09:32:43.393Z,7.37
2018-11-01T09:33:43.147Z,7.44
2018-11-01T09:34:43.108Z,7.44
2018-11-01T09:35:44.169Z,7.44
2018-11-01T09:36:43.142Z,7.44
2018-11-01T09:37:43.196Z,7.5
2018-11-01T09:38:43.039Z,7.44
2018-11-01T09:39:43.150Z,7.44
2018-11-01T09:40:43.215Z,7.44
2018-11-01T09:41:43.221Z,7.5
2018-11-01T09:42:43.172Z,7.44
2018-11-01T09:43:43.046Z,7.5
2018-11-01T09:44:43.080Z,7.5
2018-11-01T09:45:43.192Z,7.5
2018-11-01T09:46:47.468Z,7.5
2018-11-01T09:48:43.320Z,7.56
2018-11-01T09:49:43.032Z,7.5
2018-11-01T09:50:43.158Z,7.56
2018-11-01T09:51:43.086Z,7.5
2018-11-01T09:52:43.024Z,7.56
2018-11-01T09:53:43.156Z,7.56
2018-11-01T09:54:43.458Z,7.56
2018-11-01T09:55:44.763Z,7.56
2018-11-01T09:56:43.020Z,7.62
2018-11-01T09:57:43.118Z,7.62
2018-11-01T09:58:43.878Z,7.56
2018-11-01T09:59:43.272Z,7.62
2018-11-01T10:00:43.114Z,7.62
2018-11-01T10:01:43.239Z,7.62
2018-11-01T10:02:43.090Z,7.62
2018-11-01T10:03:43.251Z,7.62
2018-11-01T10:04:43.277Z,7.62
2018-11-01T10:05:43.281Z,7.69
2018-11-01T10:06:43.605Z,7.62
2018-11-01T10:07:43.214Z,7.69
2018-11-01T10:08:43.184Z,7.69
2018-11-01T10:09:43.214Z,7.69
2018-11-01T10:10:43.116Z,7.69
2018-11-01T10:11:43.023Z,7.69
2018-11-01T10:12:43.140Z,7.69
2018-11-01T10:13:43.167Z,7.75
2018-11-01T10:14:42.979Z,7.75
2018-11-01T10:15:46.010Z,7.81
2018-11-01T10:16:46.285Z,7.81
2018-11-01T10:17:48.844Z,7.81
2018-11-01T10:18:43.678Z,7.87
2018-11-01T10:19:43.133Z,7.87
2018-11-01T10:20:43.180Z,7.94
2018-11-01T10:21:43.942Z,7.94
2018-11-01T10:22:45.151Z,8
2018-11-01T10:23:43.345Z,8
2018-11-01T10:24:43.396Z,8
2018-11-01T10:25:43.485Z,8
2018-11-01T10:26:43.679Z,8
2018-11-01T10:27:44.633Z,8.06
2018-11-01T10:28:42.998Z,8.06
2018-11-01T10:29:43.236Z,8.06
2018-11-01T10:30:43.351Z,8.06
2018-11-01T10:31:43.091Z,8.06
2018-11-01T10:32:42.973Z,8.06
2018-11-01T10:33:43.507Z,8.06
2018-11-01T10:34:43.909Z,8.06
2018-11-01T10:35:43.026Z,8.06
2018-11-01T10:36:46.281Z,8.06
2018-11-01T10:37:43.614Z,8.06
2018-11-01T10:38:43.126Z,8.13
2018-11-01T10:39:42.971Z,8.13
2018-11-01T10:40:43.485Z,8.13
2018-11-01T10:41:49.195Z,8.06
2018-11-01T10:42:43.342Z,8.13
2018-11-01T10:43:43.582Z,8.13
2018-11-01T10:44:43.875Z,8.13
2018-11-01T10:45:43.267Z,8.13
2018-11-01T10:46:43.250Z,8.13
2018-11-01T10:47:44.337Z,8.06
2018-11-01T10:48:43.274Z,8
2018-11-01T10:49:43.030Z,8.06
2018-11-01T10:50:45.351Z,8.06
2018-11-01T10:51:43.247Z,8.06
2018-11-01T10:52:43.073Z,8.06
2018-11-01T10:53:44.172Z,8.06
2018-11-01T10:54:43.040Z,8.13
2018-11-01T10:55:43.626Z,8.19
2018-11-01T10:56:42.915Z,8.25
2018-11-01T10:57:42.951Z,8.31
2018-11-01T10:58:43.412Z,8.38
2018-11-01T10:59:43.095Z,8.44
2018-11-01T11:00:46.755Z,8.5
2018-11-01T11:01:42.997Z,8.5
2018-11-01T11:02:43.367Z,8.56
2018-11-01T11:03:43.299Z,8.56
2018-11-01T11:04:43.280Z,8.63
2018-11-01T11:05:42.927Z,8.56
2018-11-01T11:06:43.549Z,8.63
2018-11-01T11:07:42.973Z,8.56
2018-11-01T11:08:43.060Z,8.56
2018-11-01T11:09:43.483Z,8.56
2018-11-01T11:10:43.109Z,8.5
2018-11-01T11:11:43.306Z,8.63
2018-11-01T11:12:43.235Z,8.56
2018-11-01T11:13:43.001Z,8.63
2018-11-01T11:14:43.084Z,8.69
2018-11-01T11:15:43.104Z,8.69
2018-11-01T11:16:42.938Z,8.69
2018-11-01T11:17:43.017Z,8.75
2018-11-01T11:18:43.501Z,8.75
2018-11-01T11:19:42.939Z,8.81
2018-11-01T11:20:46.526Z,8.81
2018-11-01T11:21:43.272Z,8.81
2018-11-01T11:22:43.029Z,8.88
2018-11-01T11:23:44.269Z,8.88
2018-11-01T11:24:42.918Z,8.94
2018-11-01T11:25:43.016Z,8.94
2018-11-01T11:26:42.995Z,8.94
2018-11-01T11:27:43.247Z,8.94
2018-11-01T11:28:43.056Z,9
2018-11-01T11:29:42.929Z,9
2018-11-01T11:30:56.447Z,9
2018-11-01T11:32:42.915Z,9
2018-11-01T11:33:43.060Z,9
2018-11-01T11:34:43.112Z,9
2018-11-01T11:35:43.851Z,9
2018-11-01T11:36:42.915Z,9
2018-11-01T11:37:43.092Z,9
2018-11-01T11:38:42.984Z,9
2018-11-01T11:39:46.505Z,8.94
2018-11-01T11:40:43.263Z,8.94
2018-11-01T11:41:44.371Z,8.94
2018-11-01T11:42:43.202Z,8.94
2018-11-01T11:43:42.899Z,8.94
2018-11-01T11:44:43.058Z,8.94
2018-11-01T11:45:43.513Z,8.94
2018-11-01T11:46:42.895Z,8.94
2018-11-01T11:47:44.049Z,8.94
2018-11-01T11:48:51.534Z,9
2018-11-01T11:49:46.522Z,9
2018-11-01T11:50:43.000Z,9
2018-11-01T11:51:43.117Z,9
2018-11-01T11:52:42.864Z,9
2018-11-01T11:53:43.291Z,9.06
2018-11-01T11:54:45.816Z,9.06
2018-11-01T11:55:43.073Z,9.06
2018-11-01T11:56:42.953Z,9.06
2018-11-01T11:57:43.081Z,9.13
2018-11-01T11:58:42.892Z,9.06
2018-11-01T11:59:42.899Z,9.13
2018-11-01T12:00:43.254Z,9.13
2018-11-01T12:01:43.031Z,9.19
2018-11-01T12:02:43.187Z,9.19
2018-11-01T12:03:42.878Z,9.19
2018-11-01T12:04:42.981Z,9.13
2018-11-01T12:05:43.648Z,9.19
2018-11-01T12:06:43.132Z,9.19
2018-11-01T12:07:43.244Z,9.19
2018-11-01T12:08:43.339Z,9.25
2018-11-01T12:09:43.098Z,9.25
2018-11-01T12:10:42.891Z,9.25
2018-11-01T12:11:42.848Z,9.25
2018-11-01T12:12:43.185Z,9.31
2018-11-01T12:13:43.091Z,9.31
2018-11-01T12:14:42.890Z,9.31
2018-11-01T12:15:42.831Z,9.38
2018-11-01T12:16:42.830Z,9.38
2018-11-01T12:17:42.832Z,9.38
2018-11-01T12:18:42.901Z,9.44
2018-11-01T12:19:42.837Z,9.44
2018-11-01T12:20:42.824Z,9.44
2018-11-01T12:21:42.843Z,9.44
2018-11-01T12:22:42.881Z,9.5
2018-11-01T12:23:43.231Z,9.5
2018-11-01T12:24:42.882Z,9.5
2018-11-01T12:25:43.025Z,9.5
2018-11-01T12:26:43.227Z,9.56
2018-11-01T12:27:43.062Z,9.56
2018-11-01T12:28:44.956Z,9.63
2018-11-01T12:29:42.979Z,9.63
2018-11-01T12:30:42.797Z,9.63
2018-11-01T12:31:42.810Z,9.63
2018-11-01T12:32:42.815Z,9.63
2018-11-01T12:33:43.208Z,9.63
2018-11-01T12:34:42.875Z,9.69
2018-11-01T12:35:44.171Z,9.69
2018-11-01T12:36:42.787Z,9.69
2018-11-01T12:37:42.850Z,9.75
2018-11-01T12:38:42.804Z,9.69
2018-11-01T12:39:42.942Z,9.75
2018-11-01T12:40:42.813Z,9.75
2018-11-01T12:41:44.346Z,9.75
2018-11-01T12:42:42.827Z,9.81
2018-11-01T12:43:42.807Z,9.75
2018-11-01T12:44:42.820Z,9.81
2018-11-01T12:45:42.785Z,9.81
2018-11-01T12:46:43.096Z,9.81
2018-11-01T12:47:42.787Z,9.81
2018-11-01T12:48:42.830Z,9.81
2018-11-01T12:49:43.738Z,9.81
2018-11-01T12:50:42.949Z,9.88
2018-11-01T12:51:42.772Z,9.88
2018-11-01T12:52:43.027Z,9.88
2018-11-01T12:53:42.744Z,9.88
2018-11-01T12:54:42.820Z,9.88
2018-11-01T12:55:43.161Z,9.94
2018-11-01T12:56:42.781Z,9.94
2018-11-01T12:57:42.880Z,9.94
2018-11-01T12:58:42.872Z,9.94
2018-11-01T12:59:42.782Z,10
2018-11-01T13:00:42.829Z,10.06
2018-11-01T13:01:42.773Z,10.06
2018-11-01T13:02:45.022Z,10.19
2018-11-01T13:03:43.133Z,10.19
2018-11-01T13:04:42.771Z,10.19
2018-11-01T13:05:43.168Z,10.25
2018-11-01T13:06:43.193Z,10.31
2018-11-01T13:07:42.811Z,10.31
2018-11-01T13:08:42.847Z,10.38
2018-11-01T13:09:42.874Z,10.44
2018-11-01T13:10:43.588Z,10.5
2018-11-01T13:11:42.782Z,10.44
2018-11-01T13:12:42.834Z,10.5
2018-11-01T13:13:42.809Z,10.63
2018-11-01T13:14:43.156Z,10.63
2018-11-01T13:15:42.869Z,10.69
2018-11-01T13:16:42.902Z,10.75
2018-11-01T13:17:42.889Z,10.88
2018-11-01T13:18:42.761Z,10.81
2018-11-01T13:19:43.065Z,10.88
2018-11-01T13:20:43.363Z,10.88
2018-11-01T13:21:42.829Z,10.88
2018-11-01T13:22:42.806Z,10.94
2018-11-01T13:23:42.748Z,10.94
2018-11-01T13:24:42.849Z,10.94
2018-11-01T13:25:42.744Z,10.94
2018-11-01T13:26:43.663Z,10.94
2018-11-01T13:27:43.108Z,10.94